createdAt,value
2019-03-29T00:03:57.299Z,10.11
2019-03-29T00:09:06.281Z,9.07
2019-03-29T00:14:16.122Z,11.51
2019-03-29T00:19:25.008Z,9.64
2019-03-29T00:24:33.759Z,11.90
2019-03-29T00:29:43.751Z,11.01
2019-03-29T00:34:52.654Z,10.50
2019-03-29T00:40:01.832Z,11.63
2019-03-29T00:45:11.065Z,11.09
2019-03-29T00:50:20.162Z,11.22
2019-03-29T00:55:29.492Z,11.89
2019-03-29T01:00:38.685Z,9.96
2019-03-29T01:05:47.418Z,9.87
2019-03-29T01:10:55.948Z,9.41
2019-03-29T01:16:05.213Z,11.18
2019-03-29T01:21:14.271Z,10.22
2019-03-29T01:26:22.973Z,10.97
2019-03-29T01:31:32.055Z,9.88
2019-03-29T01:36:40.768Z,12.14
2019-03-29T01:41:49.429Z,10.57
2019-03-29T01:46:58.796Z,11.32
2019-03-29T01:52:07.402Z,10.72
2019-03-29T01:57:16.350Z,10.89
2019-03-29T02:02:24.928Z,10.57
2019-03-29T02:07:33.992Z,10.90
2019-03-29T02:12:42.816Z,9.97
2019-03-29T02:17:51.443Z,12.13
2019-03-29T02:23:00.245Z,10.42
2019-03-29T02:28:08.993Z,10.64
2019-03-29T02:33:17.601Z,11.13
2019-03-29T02:38:27.802Z,10.78
2019-03-29T02:43:26.268Z,10.28
2019-03-29T02:48:35.540Z,10.50
2019-03-29T02:53:42.862Z,11.19
2019-03-29T02:58:56.642Z,11.09
2019-03-29T03:03:55.562Z,9.39
2019-03-29T03:09:13.889Z,10.94
2019-03-29T03:19:08.546Z,12.84
2019-03-29T03:24:17.306Z,12.86
2019-03-29T03:29:26.309Z,11.20
2019-03-29T03:34:33.634Z,11.52
2019-03-29T03:39:42.302Z,11.62
2019-03-29T03:44:50.974Z,11.84
2019-03-29T03:50:01.238Z,12.86
2019-03-29T03:55:08.071Z,11.33
2019-03-29T04:00:16.801Z,12.00
2019-03-29T04:05:25.434Z,13.82
2019-03-29T04:10:34.305Z,12.01
2019-03-29T04:15:45.777Z,12.92
2019-03-29T04:20:44.489Z,14.62
2019-03-29T04:25:53.448Z,12.85
2019-03-29T04:31:02.575Z,13.53
2019-03-29T04:36:11.204Z,13.62
2019-03-29T04:41:19.889Z,12.01
2019-03-29T04:46:28.609Z,12.74
2019-03-29T04:51:37.340Z,12.70
2019-03-29T04:56:46.159Z,13.48
2019-03-29T05:01:55.135Z,13.25
2019-03-29T05:07:03.831Z,14.00
2019-03-29T05:12:14.660Z,13.03
2019-03-29T05:17:13.126Z,14.16
2019-03-29T05:22:21.842Z,11.97
2019-03-29T05:27:30.865Z,13.21
2019-03-29T05:37:45.255Z,14.23
2019-03-29T05:42:56.388Z,14.31
2019-03-29T05:47:44.975Z,13.88
2019-03-29T05:52:57.103Z,12.72
2019-03-29T05:57:55.983Z,14.47
2019-03-29T06:03:05.242Z,12.94
2019-03-29T06:08:15.770Z,13.97
2019-03-29T06:13:14.908Z,14.31
2019-03-29T06:18:24.072Z,14.21
2019-03-29T06:23:32.999Z,14.08
2019-03-29T06:29:39.988Z,13.49
2019-03-29T06:34:41.664Z,12.87
2019-03-29T06:39:40.663Z,12.88
2019-03-29T06:44:49.613Z,14.53
2019-03-29T06:49:58.822Z,14.58
2019-03-29T06:55:08.132Z,14.75
2019-03-29T07:00:17.384Z,14.41
2019-03-29T07:05:27.094Z,10.98
2019-03-29T07:10:35.702Z,12.96
2019-03-29T07:15:44.792Z,11.28
2019-03-29T07:20:53.458Z,13.10
2019-03-29T07:26:07.509Z,12.63
2019-03-29T07:31:05.986Z,12.30
2019-03-29T07:36:15.004Z,10.86
2019-03-29T07:41:31.784Z,11.20
2019-03-29T07:46:33.078Z,13.33
2019-03-29T07:51:42.089Z,12.28
2019-03-29T07:56:51.509Z,12.12
2019-03-29T08:02:02.321Z,12.94
2019-03-29T08:07:11.197Z,12.66
2019-03-29T08:12:09.650Z,13.17
2019-03-29T08:17:19.933Z,12.03
2019-03-29T08:22:18.975Z,12.45
2019-03-29T08:27:28.475Z,11.84
2019-03-29T08:32:37.451Z,13.30
2019-03-29T08:37:47.083Z,12.61
2019-03-29T08:42:56.359Z,13.88
2019-03-29T08:48:06.959Z,12.31
2019-03-29T08:53:14.730Z,11.44
2019-03-29T08:58:25.951Z,13.60
2019-03-29T09:03:25.006Z,13.66
2019-03-29T09:08:34.465Z,12.90
2019-03-29T09:13:43.743Z,10.13
2019-03-29T09:18:53.096Z,10.58
2019-03-29T09:24:02.475Z,10.72
2019-03-29T09:29:11.852Z,10.43
2019-03-29T09:34:20.948Z,10.32
2019-03-29T09:39:30.631Z,7.01
2019-03-29T09:44:39.349Z,7.96
2019-03-29T09:49:48.574Z,8.02
2019-03-29T09:54:57.778Z,8.50
2019-03-29T10:05:31.430Z,5.74
2019-03-29T10:10:41.187Z,7.34
2019-03-29T10:15:40.204Z,6.59
2019-03-29T10:20:50.324Z,6.25
2019-03-29T10:25:48.842Z,6.19
2019-03-29T10:30:58.291Z,6.46
2019-03-29T10:36:07.467Z,6.50
2019-03-29T11:12:07.620Z,3.68
2019-03-29T11:17:17.108Z,3.57
2019-03-29T11:22:27.360Z,3.27
2019-03-29T11:27:26.372Z,5.01
2019-03-29T11:32:36.233Z,3.02
2019-03-29T11:37:45.483Z,3.32
2019-03-29T11:43:01.377Z,3.97
2019-03-29T11:48:08.100Z,4.81
2019-03-29T11:53:08.708Z,3.31
2019-03-29T11:58:17.980Z,4.34
2019-03-29T12:03:31.600Z,4.88
2019-03-29T12:08:30.762Z,4.78
2019-03-29T12:13:41.412Z,3.26
2019-03-29T12:18:49.458Z,3.49
2019-03-29T12:23:58.823Z,4.28
2019-03-29T12:29:08.052Z,3.67
2019-03-29T12:34:20.626Z,3.89
2019-03-29T12:39:19.160Z,4.28
2019-03-29T12:44:29.152Z,4.01
2019-03-29T12:49:28.442Z,4.10
2019-03-29T12:54:38.072Z,4.50
2019-03-29T12:59:46.906Z,4.69
2019-03-29T13:04:59.737Z,4.19
2019-03-29T13:09:58.724Z,5.38
2019-03-29T13:15:08.470Z,4.80
2019-03-29T13:20:17.848Z,4.57
2019-03-29T13:25:27.149Z,5.03
2019-03-29T13:30:36.526Z,6.08
2019-03-29T13:35:46.776Z,5.07
2019-03-29T13:40:45.702Z,5.08
2019-03-29T13:45:59.216Z,5.57
2019-03-29T13:50:59.637Z,5.89
2019-03-29T13:56:07.040Z,4.44
2019-03-29T14:01:16.344Z,5.28
2019-03-29T14:06:25.964Z,4.30
2019-03-29T14:11:37.021Z,4.15
2019-03-29T14:16:36.382Z,3.78
2019-03-29T14:21:45.623Z,3.58
2019-03-29T14:26:55.557Z,4.02
2019-03-29T14:32:05.344Z,3.30
2019-03-29T14:37:14.540Z,3.65
2019-03-29T14:42:25.014Z,3.16
2019-03-29T14:47:24.033Z,3.50
2019-03-29T14:52:33.489Z,3.20
2019-03-29T14:57:44.909Z,4.40
2019-03-29T15:02:44.090Z,2.78
2019-03-29T15:07:53.226Z,2.39
2019-03-29T15:13:02.937Z,3.20
2019-03-29T15:18:12.267Z,3.24
2019-03-29T15:23:22.209Z,4.04
2019-03-29T15:28:31.397Z,3.12
2019-03-29T15:33:40.674Z,2.98
2019-03-29T15:38:50.043Z,3.70
2019-03-29T15:43:59.472Z,3.13
2019-03-29T15:49:09.212Z,2.63
2019-03-29T15:54:18.911Z,2.90
2019-03-29T15:59:28.280Z,2.75
2019-03-29T16:04:38.574Z,4.39
2019-03-29T16:09:37.798Z,3.73
2019-03-29T16:14:47.177Z,2.41
2019-03-29T16:19:56.712Z,2.58
2019-03-29T16:25:06.161Z,2.99
2019-03-29T16:30:15.395Z,2.72
2019-03-29T16:35:24.685Z,2.27
2019-03-29T16:40:33.999Z,2.97
2019-03-29T16:45:48.316Z,4.60
2019-03-29T16:50:54.351Z,3.25
2019-03-29T16:55:53.523Z,2.84
2019-03-29T17:01:02.798Z,2.98
2019-03-29T17:06:12.388Z,5.56
2019-03-29T17:11:35.058Z,2.35
2019-03-29T17:16:30.637Z,2.09
2019-03-29T17:21:26.597Z,2.65
2019-03-29T17:26:36.287Z,2.97
2019-03-29T17:31:45.737Z,2.01
2019-03-29T17:36:55.388Z,3.16
2019-03-29T17:42:04.898Z,2.24
2019-03-29T17:47:14.243Z,2.70
2019-03-29T17:52:22.915Z,3.02
2019-03-29T17:57:34.032Z,3.54
2019-03-29T18:02:33.030Z,5.59
2019-03-29T18:07:43.220Z,3.47
2019-03-29T18:12:42.196Z,4.41
2019-03-29T18:17:51.822Z,4.23
2019-03-29T18:23:01.027Z,3.70
2019-03-29T18:28:10.456Z,4.62
2019-03-29T18:33:19.237Z,3.86
2019-03-29T18:38:29.207Z,3.85
2019-03-29T18:43:38.438Z,6.03
2019-03-29T18:48:49.882Z,5.45
2019-03-29T18:53:48.880Z,5.93
2019-03-29T18:59:00.818Z,4.58
2019-03-29T19:03:59.096Z,6.21
2019-03-29T19:09:08.333Z,5.17
2019-03-29T19:14:17.565Z,5.95
2019-03-29T19:19:28.782Z,7.14
2019-03-29T19:24:28.190Z,11.59
2019-03-29T19:29:37.852Z,9.42
2019-03-29T19:34:47.249Z,11.53
2019-03-29T19:40:03.065Z,7.61
2019-03-29T19:45:01.969Z,8.13
2019-03-29T19:50:11.433Z,10.35
2019-03-29T19:55:20.835Z,11.95
2019-03-29T20:00:30.446Z,9.47
2019-03-29T20:05:40.358Z,8.56
2019-03-29T20:10:50.539Z,7.81
2019-03-29T20:15:59.653Z,8.70
2019-03-29T20:21:08.925Z,8.88
2019-03-29T20:26:18.011Z,9.71
2019-03-29T20:31:27.821Z,9.48
2019-03-29T20:36:37.310Z,8.72
2019-03-29T20:41:46.600Z,8.87
2019-03-29T20:46:55.358Z,9.00
2019-03-29T20:52:06.601Z,8.93
2019-03-29T20:57:05.620Z,7.99
2019-03-29T21:02:18.840Z,7.95
2019-03-29T21:07:17.463Z,7.94
2019-03-29T21:12:26.569Z,11.19
2019-03-29T21:17:36.218Z,9.05
2019-03-29T21:22:45.548Z,8.35
2019-03-29T21:27:54.765Z,10.46
2019-03-29T21:33:10.833Z,9.07
2019-03-29T21:38:10.045Z,7.44
2019-03-29T21:43:19.458Z,7.07
2019-03-29T21:48:29.272Z,9.79
2019-03-29T21:53:38.535Z,7.78
2019-03-29T21:58:37.045Z,10.33
2019-03-29T22:03:47.515Z,10.05
2019-03-29T22:08:45.796Z,7.75
2019-03-29T22:13:54.828Z,8.58
2019-03-29T22:19:07.137Z,8.77
2019-03-29T22:24:10.548Z,8.36
2019-03-29T22:29:09.687Z,7.96
2019-03-29T22:34:22.519Z,8.33
2019-03-29T22:39:21.752Z,10.33
2019-03-29T22:44:31.775Z,8.33
2019-03-29T22:49:30.530Z,7.55
2019-03-29T22:54:39.830Z,9.39
2019-03-29T22:59:48.897Z,8.61
2019-03-29T23:05:00.339Z,8.49
2019-03-29T23:09:59.311Z,9.02
2019-03-29T23:15:08.742Z,9.39
2019-03-29T23:20:18.440Z,7.67
2019-03-29T23:25:27.986Z,9.22
2019-03-29T23:30:36.732Z,8.25
2019-03-29T23:35:45.660Z,8.05
2019-03-29T23:40:54.891Z,9.29
2019-03-29T23:46:04.192Z,7.59
2019-03-29T23:51:13.580Z,7.61
2019-03-29T23:56:24.598Z,8.27
